Vlieland — PBFD — position and weather

sailwx.info

Track history (hours):
 
Tides and Currents Weather Stations Pressure Air Temp Water Temp Dewpoint Dewpoint Depression Visibility Wind Speed Wind Dir Waves Ship Positions

Vlieland

Last reported at 2017-Oct-15 17:33 UTC. Time now 2017-Oct-17 10:07 UTC.
Position N 51°29' E 001°01'.

Length 111 m; draft 6.3 m.

Type: Ship. MMSI: 244376000.

Date/timePositionNaut miles runAvg speedWind from/ knotsBaromVisibWave heightAir tempDewpointWater temp
2017-Oct-15 17:33N 51°29' E 001°01'112.0
2017-Oct-15 17:29N 51°29' E 001°02'612.3
2017-Oct-15 17:00N 51°29' E 001°11'612.4
2017-Oct-15 16:30N 51°28' E 001°21'5 9.7
2017-Oct-15 16:00N 51°26' E 001°27'1 2.9
2017-Oct-15 15:30N 51°25' E 001°25'0 0.3
2017-Oct-15 15:00N 51°25' E 001°26'0 0.0
2017-Oct-15 14:00N 51°25' E 001°26'0 0.0
2017-Oct-15 13:30N 51°25' E 001°26'0 0.0
2017-Oct-15 13:00N 51°25' E 001°26'0 0.0
2017-Oct-15 12:30N 51°25' E 001°26'0 0.0
2017-Oct-15 12:01N 51°25' E 001°26'0 0.0
2017-Oct-15 11:31N 51°25' E 001°26'0 0.0
2017-Oct-15 11:00N 51°25' E 001°26'1 1.5
2017-Oct-15 10:30N 51°25' E 001°27'510.3
2017-Oct-15 10:01N 51°28' E 001°34'510.4
2017-Oct-15 09:31N 51°31' E 001°40'510.8
2017-Oct-15 09:01N 51°34' E 001°47'510.8
2017-Oct-15 08:31N 51°38' E 001°54'510.7
2017-Oct-15 08:00N 51°41' E 002°01'611.6
2017-Oct-15 07:31N 51°45' E 002°08'611.7
2017-Oct-15 07:00N 51°49' E 002°15'612.2
2017-Oct-15 06:31N 51°53' E 002°22'510.5
2017-Oct-15 05:59N 51°57' E 002°27'5 9.9
2017-Oct-15 05:29N 52°01' E 002°33'612.6
2017-Oct-15 04:59N 52°06' E 002°40'612.6
2017-Oct-15 04:30N 52°10' E 002°47'812.5
2017-Oct-15 03:54N 52°15' E 002°56'612.3
2017-Oct-15 03:25N 52°20' E 003°02'512.1
2017-Oct-15 02:59N 52°23' E 003°08'811.8
2017-Oct-15 02:16N 52°30' E 003°18'311.5
2017-Oct-15 02:00N 52°32' E 003°21'611.2
2017-Oct-15 01:30N 52°36' E 003°27'611.0
2017-Oct-15 00:59N 52°40' E 003°34'510.7
2017-Oct-15 00:30N 52°44' E 003°39'510.5
2017-Oct-14 23:59N 52°48' E 003°45'710.4
2017-Oct-14 23:17N 52°53' E 003°54'410.2
2017-Oct-14 22:53N 52°56' E 003°58'410.3
2017-Oct-14 22:30N 52°59' E 004°03'610.4
2017-Oct-14 21:57N 53°03' E 004°10'510.9
2017-Oct-14 21:28N 53°07' E 004°16'511.2
2017-Oct-14 21:00N 53°11' E 004°22'9110.9
2017-Oct-14 12:40N 54°32' E 005°30'210.3
2017-Oct-14 12:29N 54°33' E 005°32'510.3
2017-Oct-14 12:00N 54°38' E 005°36'510.2
2017-Oct-14 11:29N 54°42' E 005°41'510.3
2017-Oct-14 10:59N 54°47' E 005°45'231 9.5
2017-Oct-13 10:33N 57°42' E 010°15'110.2
2017-Oct-13 10:25N 57°43' E 010°18'9 9.5
2017-Oct-13 09:28N 57°46' E 010°33'510.1
2017-Oct-13 09:00N 57°46' E 010°42'510.7
2017-Oct-13 08:30N 57°45' E 010°52'611.0
2017-Oct-13 08:00N 57°41' E 010°60'511.2
2017-Oct-13 07:31N 57°37' E 011°07'611.4
2017-Oct-13 07:01N 57°33' E 011°15'611.7
2017-Oct-13 06:31N 57°29' E 011°23'611.4
2017-Oct-13 06:01N 57°24' E 011°28'611.6
2017-Oct-13 05:30N 57°19' E 011°32'510.8
2017-Oct-13 05:00N 57°14' E 011°36'610.9
2017-Oct-13 04:29N 57°09' E 011°40'510.6
2017-Oct-13 04:01N 57°04' E 011°43'59 7.6
2017-Oct-12 20:11N 56°10' E 012°29'1 6.6
2017-Oct-12 20:01N 56°09' E 012°30'4 7.5
2017-Oct-12 19:30N 56°06' E 012°34'4 7.0
2017-Oct-12 19:00N 56°04' E 012°39'4 7.4
2017-Oct-12 18:31N 56°00' E 012°41'4 8.2
2017-Oct-12 18:01N 55°56' E 012°43'5 9.5
2017-Oct-12 17:31N 55°52' E 012°44'510.2
2017-Oct-12 17:01N 55°47' E 012°42'510.1
2017-Oct-12 16:31N 55°42' E 012°41'4 8.6
2017-Oct-12 16:01N 55°37' E 012°42'4 8.4
2017-Oct-12 15:30N 55°33' E 012°42'5 9.0
2017-Oct-12 15:00N 55°29' E 012°42'5 9.2
2017-Oct-12 14:31N 55°24' E 012°41'5 9.4
2017-Oct-12 14:01N 55°19' E 012°40'4 9.0
2017-Oct-12 13:31N 55°17' E 012°47'5 9.0
2017-Oct-12 13:00N 55°16' E 012°54'5 9.4
2017-Oct-12 12:30N 55°15' E 013°03'5 9.6
2017-Oct-12 12:00N 55°15' E 013°11'5 9.4
2017-Oct-12 11:30N 55°15' E 013°19'22 8.9
2017-Oct-12 09:01N 55°14' E 013°58'3 8.8
2017-Oct-12 08:43N 55°14' E 014°03'3 8.8
2017-Oct-12 08:23N 55°14' E 014°08'5 8.8
2017-Oct-12 07:48N 55°14' E 014°17'3 9.2
2017-Oct-12 07:30N 55°16' E 014°20'5 9.4
2017-Oct-12 07:00N 55°20' E 014°26'6 9.6
2017-Oct-12 06:21N 55°24' E 014°34'4 9.5
2017-Oct-12 05:57N 55°26' E 014°40'410.0
2017-Oct-12 05:30N 55°27' E 014°47'710.4
2017-Oct-12 04:50N 55°27' E 014°60'410.5
2017-Oct-12 04:25N 55°28' E 015°07'610.7
2017-Oct-12 03:54N 55°28' E 015°17'411.0
2017-Oct-12 03:30N 55°28' E 015°25'711.0
2017-Oct-12 02:52N 55°28' E 015°37'411.0
2017-Oct-12 02:30N 55°29' E 015°44'610.9
2017-Oct-12 02:00N 55°29' E 015°54'  
2017-Oct-06 01:49N 55°25' E 015°25'311.0
2017-Oct-06 01:30N 55°25' E 015°18'511.0
2017-Oct-06 01:00N 55°24' E 015°09'511.0
2017-Oct-06 00:30N 55°24' E 014°59'610.9
2017-Oct-05 23:58N 55°23' E 014°49'510.8
2017-Oct-05 23:30N 55°23' E 014°40'510.8
2017-Oct-05 23:00N 55°19' E 014°33'511.0
2017-Oct-05 22:30N 55°15' E 014°26'510.9
2017-Oct-05 22:00N 55°11' E 014°19'611.0
2017-Oct-05 21:30N 55°11' E 014°10'1111.1
2017-Oct-05 20:33N 55°11' E 013°51'211.0
2017-Oct-05 20:21N 55°12' E 013°48'511.1
2017-Oct-05 19:56N 55°12' E 013°39'1911.2
2017-Oct-05 18:15N 55°14' E 013°07'311.3
2017-Oct-05 18:00N 55°15' E 013°02'  
Track history (hours):
 
Tides and Currents Weather Stations Pressure Air Temp Water Temp Dewpoint Dewpoint Depression Visibility Wind Speed Wind Dir Waves Ship Positions

Vlieland

Last reported at 2017-Oct-15 17:33 UTC. Time now 2017-Oct-17 10:07 UTC.
Position N 51°29' E 001°01'.

Length 111 m; draft 6.3 m.

Type: Ship. MMSI: 244376000.

Date/timePositionNaut miles runAvg speedWind from/ knotsBaromVisibWave heightAir tempDewpointWater temp
2017-Oct-15 17:33N 51°29' E 001°01'112.0
2017-Oct-15 17:29N 51°29' E 001°02'612.3
2017-Oct-15 17:00N 51°29' E 001°11'612.4
2017-Oct-15 16:30N 51°28' E 001°21'5 9.7
2017-Oct-15 16:00N 51°26' E 001°27'1 2.9
2017-Oct-15 15:30N 51°25' E 001°25'0 0.3
2017-Oct-15 15:00N 51°25' E 001°26'0 0.0
2017-Oct-15 14:00N 51°25' E 001°26'0 0.0
2017-Oct-15 13:30N 51°25' E 001°26'0 0.0
2017-Oct-15 13:00N 51°25' E 001°26'0 0.0
2017-Oct-15 12:30N 51°25' E 001°26'0 0.0
2017-Oct-15 12:01N 51°25' E 001°26'0 0.0
2017-Oct-15 11:31N 51°25' E 001°26'0 0.0
2017-Oct-15 11:00N 51°25' E 001°26'1 1.5
2017-Oct-15 10:30N 51°25' E 001°27'510.3
2017-Oct-15 10:01N 51°28' E 001°34'510.4
2017-Oct-15 09:31N 51°31' E 001°40'510.8
2017-Oct-15 09:01N 51°34' E 001°47'510.8
2017-Oct-15 08:31N 51°38' E 001°54'510.7
2017-Oct-15 08:00N 51°41' E 002°01'611.6
2017-Oct-15 07:31N 51°45' E 002°08'611.7
2017-Oct-15 07:00N 51°49' E 002°15'612.2
2017-Oct-15 06:31N 51°53' E 002°22'510.5
2017-Oct-15 05:59N 51°57' E 002°27'5 9.9
2017-Oct-15 05:29N 52°01' E 002°33'612.6
2017-Oct-15 04:59N 52°06' E 002°40'612.6
2017-Oct-15 04:30N 52°10' E 002°47'812.5
2017-Oct-15 03:54N 52°15' E 002°56'612.3
2017-Oct-15 03:25N 52°20' E 003°02'512.1
2017-Oct-15 02:59N 52°23' E 003°08'811.8
2017-Oct-15 02:16N 52°30' E 003°18'311.5
2017-Oct-15 02:00N 52°32' E 003°21'611.2
2017-Oct-15 01:30N 52°36' E 003°27'611.0
2017-Oct-15 00:59N 52°40' E 003°34'510.7
2017-Oct-15 00:30N 52°44' E 003°39'510.5
2017-Oct-14 23:59N 52°48' E 003°45'710.4
2017-Oct-14 23:17N 52°53' E 003°54'410.2
2017-Oct-14 22:53N 52°56' E 003°58'410.3
2017-Oct-14 22:30N 52°59' E 004°03'610.4
2017-Oct-14 21:57N 53°03' E 004°10'510.9
2017-Oct-14 21:28N 53°07' E 004°16'511.2
2017-Oct-14 21:00N 53°11' E 004°22'9110.9
2017-Oct-14 12:40N 54°32' E 005°30'210.3
2017-Oct-14 12:29N 54°33' E 005°32'510.3
2017-Oct-14 12:00N 54°38' E 005°36'510.2
2017-Oct-14 11:29N 54°42' E 005°41'510.3
2017-Oct-14 10:59N 54°47' E 005°45'231 9.5
2017-Oct-13 10:33N 57°42' E 010°15'110.2
2017-Oct-13 10:25N 57°43' E 010°18'9 9.5
2017-Oct-13 09:28N 57°46' E 010°33'510.1
2017-Oct-13 09:00N 57°46' E 010°42'510.7
2017-Oct-13 08:30N 57°45' E 010°52'611.0
2017-Oct-13 08:00N 57°41' E 010°60'511.2
2017-Oct-13 07:31N 57°37' E 011°07'611.4
2017-Oct-13 07:01N 57°33' E 011°15'611.7
2017-Oct-13 06:31N 57°29' E 011°23'611.4
2017-Oct-13 06:01N 57°24' E 011°28'611.6
2017-Oct-13 05:30N 57°19' E 011°32'510.8
2017-Oct-13 05:00N 57°14' E 011°36'610.9
2017-Oct-13 04:29N 57°09' E 011°40'510.6
2017-Oct-13 04:01N 57°04' E 011°43'59 7.6
2017-Oct-12 20:11N 56°10' E 012°29'1 6.6
2017-Oct-12 20:01N 56°09' E 012°30'4 7.5
2017-Oct-12 19:30N 56°06' E 012°34'4 7.0
2017-Oct-12 19:00N 56°04' E 012°39'4 7.4
2017-Oct-12 18:31N 56°00' E 012°41'4 8.2
2017-Oct-12 18:01N 55°56' E 012°43'5 9.5
2017-Oct-12 17:31N 55°52' E 012°44'510.2
2017-Oct-12 17:01N 55°47' E 012°42'510.1
2017-Oct-12 16:31N 55°42' E 012°41'4 8.6
2017-Oct-12 16:01N 55°37' E 012°42'4 8.4
2017-Oct-12 15:30N 55°33' E 012°42'5 9.0
2017-Oct-12 15:00N 55°29' E 012°42'5 9.2
2017-Oct-12 14:31N 55°24' E 012°41'5 9.4
2017-Oct-12 14:01N 55°19' E 012°40'4 9.0
2017-Oct-12 13:31N 55°17' E 012°47'5 9.0
2017-Oct-12 13:00N 55°16' E 012°54'5 9.4
2017-Oct-12 12:30N 55°15' E 013°03'5 9.6
2017-Oct-12 12:00N 55°15' E 013°11'5 9.4
2017-Oct-12 11:30N 55°15' E 013°19'22 8.9
2017-Oct-12 09:01N 55°14' E 013°58'3 8.8
2017-Oct-12 08:43N 55°14' E 014°03'3 8.8
2017-Oct-12 08:23N 55°14' E 014°08'5 8.8
2017-Oct-12 07:48N 55°14' E 014°17'3 9.2
2017-Oct-12 07:30N 55°16' E 014°20'5 9.4
2017-Oct-12 07:00N 55°20' E 014°26'6 9.6
2017-Oct-12 06:21N 55°24' E 014°34'4 9.5
2017-Oct-12 05:57N 55°26' E 014°40'410.0
2017-Oct-12 05:30N 55°27' E 014°47'710.4
2017-Oct-12 04:50N 55°27' E 014°60'410.5
2017-Oct-12 04:25N 55°28' E 015°07'610.7
2017-Oct-12 03:54N 55°28' E 015°17'411.0
2017-Oct-12 03:30N 55°28' E 015°25'711.0
2017-Oct-12 02:52N 55°28' E 015°37'411.0
2017-Oct-12 02:30N 55°29' E 015°44'610.9
2017-Oct-12 02:00N 55°29' E 015°54'  
2017-Oct-06 01:49N 55°25' E 015°25'311.0
2017-Oct-06 01:30N 55°25' E 015°18'511.0
2017-Oct-06 01:00N 55°24' E 015°09'511.0
2017-Oct-06 00:30N 55°24' E 014°59'610.9
2017-Oct-05 23:58N 55°23' E 014°49'510.8
2017-Oct-05 23:30N 55°23' E 014°40'510.8
2017-Oct-05 23:00N 55°19' E 014°33'511.0
2017-Oct-05 22:30N 55°15' E 014°26'510.9
2017-Oct-05 22:00N 55°11' E 014°19'611.0
2017-Oct-05 21:30N 55°11' E 014°10'1111.1
2017-Oct-05 20:33N 55°11' E 013°51'211.0
2017-Oct-05 20:21N 55°12' E 013°48'511.1
2017-Oct-05 19:56N 55°12' E 013°39'1911.2
2017-Oct-05 18:15N 55°14' E 013°07'311.3
2017-Oct-05 18:00N 55°15' E 013°02'  

Dump ship's entire track history